sensor_id;sensor_type;location;lat;lon;timestamp;pressure;altitude;pressure_sealevel;temperature;humidity
42067;BME280;27734;47.028;28.820;2023-05-10T00:00:15;101191.69;;;9.54;69.34
42067;BME280;27734;47.028;28.820;2023-05-10T00:03:04;101187.48;;;9.58;69.77
42067;BME280;27734;47.028;28.820;2023-05-10T00:05:33;101182.17;;;9.56;69.25
42067;BME280;27734;47.028;28.820;2023-05-10T00:08:01;101180.36;;;9.55;69.23
42067;BME280;27734;47.028;28.820;2023-05-10T00:10:29;101184.71;;;9.54;69.95
42067;BME280;27734;47.028;28.820;2023-05-10T00:12:58;101180.28;;;9.53;69.35
42067;BME280;27734;47.028;28.820;2023-05-10T00:15:27;101177.50;;;9.50;69.52
42067;BME280;27734;47.028;28.820;2023-05-10T00:17:55;101179.08;;;9.47;70.49
42067;BME280;27734;47.028;28.820;2023-05-10T00:20:24;101178.84;;;9.42;69.84
42067;BME280;27734;47.028;28.820;2023-05-10T00:22:52;101174.37;;;9.40;70.07
42067;BME280;27734;47.028;28.820;2023-05-10T00:25:21;101175.18;;;9.39;69.76
42067;BME280;27734;47.028;28.820;2023-05-10T00:27:49;101168.98;;;9.37;70.23
42067;BME280;27734;47.028;28.820;2023-05-10T00:30:18;101170.67;;;9.36;70.32
42067;BME280;27734;47.028;28.820;2023-05-10T00:32:46;101170.59;;;9.34;69.82
42067;BME280;27734;47.028;28.820;2023-05-10T00:35:16;101173.13;;;9.33;70.37
42067;BME280;27734;47.028;28.820;2023-05-10T00:37:44;101174.78;;;9.31;70.55
42067;BME280;27734;47.028;28.820;2023-05-10T00:40:14;101176.36;;;9.27;70.53
42067;BME280;27734;47.028;28.820;2023-05-10T00:42:43;101171.77;;;9.23;70.74
42067;BME280;27734;47.028;28.820;2023-05-10T00:45:12;101176.69;;;9.17;70.13
42067;BME280;27734;47.028;28.820;2023-05-10T00:47:41;101167.62;;;9.10;70.53
42067;BME280;27734;47.028;28.820;2023-05-10T00:50:10;101165.65;;;9.06;70.71
42067;BME280;27734;47.028;28.820;2023-05-10T00:52:39;101162.87;;;9.03;70.78
42067;BME280;27734;47.028;28.820;2023-05-10T00:55:10;101159.52;;;9.06;70.98
42067;BME280;27734;47.028;28.820;2023-05-10T00:57:39;101163.11;;;9.08;70.29
42067;BME280;27734;47.028;28.820;2023-05-10T01:00:11;101155.26;;;9.08;70.94
42067;BME280;27734;47.028;28.820;2023-05-10T01:02:41;101155.18;;;9.06;70.95
42067;BME280;27734;47.028;28.820;2023-05-10T01:05:10;101165.65;;;9.06;70.50
42067;BME280;27734;47.028;28.820;2023-05-10T01:07:39;101165.33;;;9.00;71.04
42067;BME280;27734;47.028;28.820;2023-05-10T01:10:09;101165.00;;;8.94;71.83
42067;BME280;27734;47.028;28.820;2023-05-10T01:12:40;101167.38;;;8.89;71.16
42067;BME280;27734;47.028;28.820;2023-05-10T01:15:11;101164.59;;;8.86;71.54
42067;BME280;27734;47.028;28.820;2023-05-10T01:17:41;101166.41;;;8.87;71.10
42067;BME280;27734;47.028;28.820;2023-05-10T01:20:11;101161.17;;;8.87;71.57
42067;BME280;27734;47.028;28.820;2023-05-10T01:26:26;101167.45;;;8.91;70.79
42067;BME280;27734;47.028;28.820;2023-05-10T01:29:20;101167.54;;;8.92;70.82
42067;BME280;27734;47.028;28.820;2023-05-10T01:32:07;101164.28;;;8.96;70.82
42067;BME280;27734;47.028;28.820;2023-05-10T01:34:50;101160.82;;;8.97;70.90
42067;BME280;27734;47.028;28.820;2023-05-10T01:37:25;101153.72;;;8.95;70.96
42067;BME280;27734;47.028;28.820;2023-05-10T01:40:02;101152.67;;;8.91;70.82
42067;BME280;27734;47.028;28.820;2023-05-10T01:42:38;101153.41;;;8.89;70.90
42067;BME280;27734;47.028;28.820;2023-05-10T01:45:14;101154.20;;;8.88;71.31
42067;BME280;27734;47.028;28.820;2023-05-10T01:47:46;101161.17;;;8.87;71.31
42067;BME280;27734;47.028;28.820;2023-05-10T01:50:19;101152.52;;;8.88;70.96
42067;BME280;27734;47.028;28.820;2023-05-10T01:52:54;101156.74;;;8.86;71.59
42067;BME280;27734;47.028;28.820;2023-05-10T01:55:26;101155.77;;;8.84;71.17
42067;BME280;27734;47.028;28.820;2023-05-10T01:58:02;101150.30;;;8.79;71.04
42067;BME280;27734;47.028;28.820;2023-05-10T02:00:32;101155.28;;;8.75;71.17
42067;BME280;27734;47.028;28.820;2023-05-10T02:03:05;101155.11;;;8.72;71.76
42067;BME280;27734;47.028;28.820;2023-05-10T02:05:38;101154.23;;;8.71;71.94
42067;BME280;27734;47.028;28.820;2023-05-10T02:08:08;101155.11;;;8.72;72.28
42067;BME280;27734;47.028;28.820;2023-05-10T02:10:40;101153.14;;;8.68;72.08
42067;BME280;27734;47.028;28.820;2023-05-10T02:13:10;101147.74;;;8.64;71.48
42067;BME280;27734;47.028;28.820;2023-05-10T02:15:40;101149.55;;;8.66;71.50
42067;BME280;27734;47.028;28.820;2023-05-10T02:18:11;101155.84;;;8.69;72.04
42067;BME280;27734;47.028;28.820;2023-05-10T02:20:41;101153.22;;;8.69;71.61
42067;BME280;27734;47.028;28.820;2023-05-10T02:23:10;101155.84;;;8.69;72.37
42067;BME280;27734;47.028;28.820;2023-05-10T02:25:40;101156.77;;;8.70;72.05
42067;BME280;27734;47.028;28.820;2023-05-10T02:28:11;101150.61;;;8.69;72.43
42067;BME280;27734;47.028;28.820;2023-05-10T02:30:40;101147.91;;;8.68;72.62
42067;BME280;27734;47.028;28.820;2023-05-10T02:33:10;101151.53;;;8.70;72.70
42067;BME280;27734;47.028;28.820;2023-05-10T02:35:40;101154.95;;;8.69;71.94
42067;BME280;27734;47.028;28.820;2023-05-10T02:38:11;101153.14;;;8.68;72.75
42067;BME280;27734;47.028;28.820;2023-05-10T02:40:42;101156.43;;;8.63;72.94
42067;BME280;27734;47.028;28.820;2023-05-10T02:43:14;101154.45;;;8.59;72.40
42067;BME280;27734;47.028;28.820;2023-05-10T02:45:43;101157.70;;;8.55;73.18
42067;BME280;27734;47.028;28.820;2023-05-10T02:48:15;101154.92;;;8.52;73.17
42067;BME280;27734;47.028;28.820;2023-05-10T02:50:45;101154.92;;;8.52;73.56
42067;BME280;27734;47.028;28.820;2023-05-10T02:53:23;101153.95;;;8.50;73.11
42067;BME280;27734;47.028;28.820;2023-05-10T02:56:01;101154.84;;;8.51;73.58
42067;BME280;27734;47.028;28.820;2023-05-10T02:58:31;101159.35;;;8.53;73.34
42067;BME280;27734;47.028;28.820;2023-05-10T03:01:00;101161.16;;;8.54;73.04
42067;BME280;27734;47.028;28.820;2023-05-10T03:03:28;101163.70;;;8.53;73.41
42067;BME280;27734;47.028;28.820;2023-05-10T03:05:57;101169.02;;;8.54;73.05
42067;BME280;27734;47.028;28.820;2023-05-10T03:08:26;101161.33;;;8.57;73.54
42067;BME280;27734;47.028;28.820;2023-05-10T03:11:14;101165.89;;;8.61;73.49
42067;BME280;27734;47.028;28.820;2023-05-10T03:13:52;101167.62;;;8.61;73.81
42067;BME280;27734;47.028;28.820;2023-05-10T03:16:29;101166.89;;;8.63;74.06
42067;BME280;27734;47.028;28.820;2023-05-10T03:19:07;101169.00;;;8.71;73.52
42067;BME280;27734;47.028;28.820;2023-05-10T03:21:41;101173.59;;;8.75;73.60
42067;BME280;27734;47.028;28.820;2023-05-10T03:24:12;101179.08;;;8.79;74.17
42067;BME280;27734;47.028;28.820;2023-05-10T03:26:44;101176.55;;;8.81;74.14
42067;BME280;27734;47.028;28.820;2023-05-10T03:29:18;101174.90;;;8.83;74.18
42067;BME280;27734;47.028;28.820;2023-05-10T03:31:47;101174.98;;;8.85;74.20
42067;BME280;27734;47.028;28.820;2023-05-10T03:34:15;101177.68;;;8.86;75.12
42067;BME280;27734;47.028;28.820;2023-05-10T03:36:45;101170.83;;;8.88;74.22
42067;BME280;27734;47.028;28.820;2023-05-10T03:39:13;101175.31;;;8.91;74.29
42067;BME280;27734;47.028;28.820;2023-05-10T03:41:42;101181.55;;;8.93;74.81
42067;BME280;27734;47.028;28.820;2023-05-10T03:44:11;101178.01;;;8.92;74.43
42067;BME280;27734;47.028;28.820;2023-05-10T03:46:39;101180.79;;;8.95;75.29
42067;BME280;27734;47.028;28.820;2023-05-10T03:49:08;101188.72;;;8.97;74.89
42067;BME280;27734;47.028;28.820;2023-05-10T03:51:38;101183.48;;;8.97;74.54
42067;BME280;27734;47.028;28.820;2023-05-10T03:54:06;101183.48;;;8.97;74.50
42067;BME280;27734;47.028;28.820;2023-05-10T03:56:35;101188.00;;;8.99;74.70
42067;BME280;27734;47.028;28.820;2023-05-10T03:59:03;101182.92;;;9.03;75.18
42067;BME280;27734;47.028;28.820;2023-05-10T04:01:35;101189.30;;;9.08;74.54
42067;BME280;27734;47.028;28.820;2023-05-10T04:04:04;101186.03;;;9.12;74.76
42067;BME280;27734;47.028;28.820;2023-05-10T04:06:33;101190.66;;;9.17;74.92
42067;BME280;27734;47.028;28.820;2023-05-10T04:09:01;101184.86;;;9.23;74.50
42067;BME280;27734;47.028;28.820;2023-05-10T04:11:32;101185.91;;;9.27;74.64
42067;BME280;27734;47.028;28.820;2023-05-10T04:14:02;101188.61;;;9.28;73.96
42067;BME280;27734;47.028;28.820;2023-05-10T04:16:31;101189.77;;;9.33;74.37
42067;BME280;27734;47.028;28.820;2023-05-10T04:18:59;101190.09;;;9.40;73.79
42067;BME280;27734;47.028;28.820;2023-05-10T04:21:28;101193.83;;;9.45;73.98
42067;BME280;27734;47.028;28.820;2023-05-10T04:23:57;101193.30;;;9.52;73.63
42067;BME280;27734;47.028;28.820;2023-05-10T04:26:25;101189.14;;;9.56;73.37
42067;BME280;27734;47.028;28.820;2023-05-10T04:28:54;101193.77;;;9.61;73.45
42067;BME280;27734;47.028;28.820;2023-05-10T04:31:22;101189.69;;;9.66;73.60
42067;BME280;27734;47.028;28.820;2023-05-10T04:33:51;101190.00;;;9.73;72.82
42067;BME280;27734;47.028;28.820;2023-05-10T04:36:20;101191.92;;;9.77;73.06
42067;BME280;27734;47.028;28.820;2023-05-10T04:38:48;101190.53;;;9.83;73.02
42067;BME280;27734;47.028;28.820;2023-05-10T04:41:17;101192.53;;;9.89;72.26
42067;BME280;27734;47.028;28.820;2023-05-10T04:43:45;101190.22;;;9.95;71.95
42067;BME280;27734;47.028;28.820;2023-05-10T04:46:14;101187.98;;;10.03;72.20
42067;BME280;27734;47.028;28.820;2023-05-10T04:48:43;101194.33;;;10.08;71.40
42067;BME280;27734;47.028;28.820;2023-05-10T04:51:11;101198.33;;;10.18;71.87
42067;BME280;27734;47.028;28.820;2023-05-10T04:53:40;101196.00;;;10.24;71.44
42067;BME280;27734;47.028;28.820;2023-05-10T04:56:09;101193.67;;;10.30;71.05
42067;BME280;27734;47.028;28.820;2023-05-10T04:58:38;101188.90;;;10.39;70.84
42067;BME280;27734;47.028;28.820;2023-05-10T05:01:07;101193.44;;;10.43;70.50
42067;BME280;27734;47.028;28.820;2023-05-10T05:03:37;101180.75;;;10.53;71.31
42067;BME280;27734;47.028;28.820;2023-05-10T05:06:06;101186.51;;;10.64;70.99
42067;BME280;27734;47.028;28.820;2023-05-10T05:08:35;101189.56;;;10.73;70.63
42067;BME280;27734;47.028;28.820;2023-05-10T05:11:05;101185.55;;;10.81;70.78
42067;BME280;27734;47.028;28.820;2023-05-10T05:13:34;101186.03;;;10.92;69.69
42067;BME280;27734;47.028;28.820;2023-05-10T05:16:02;101182.13;;;11.02;69.04
42067;BME280;27734;47.028;28.820;2023-05-10T05:18:31;101184.10;;;11.07;68.26
42067;BME280;27734;47.028;28.820;2023-05-10T05:21:00;101184.38;;;11.13;68.50
42067;BME280;27734;47.028;28.820;2023-05-10T05:23:31;101181.75;;;11.13;68.41
42067;BME280;27734;47.028;28.820;2023-05-10T05:26:00;101187.41;;;11.23;67.91
42067;BME280;27734;47.028;28.820;2023-05-10T05:28:29;101182.42;;;11.29;67.88
42067;BME280;27734;47.028;28.820;2023-05-10T05:31:00;101183.64;;;11.37;67.51
42067;BME280;27734;47.028;28.820;2023-05-10T05:33:29;101174.59;;;11.50;67.87
42067;BME280;27734;47.028;28.820;2023-05-10T05:36:00;101181.25;;;11.63;67.85
42067;BME280;27734;47.028;28.820;2023-05-10T05:38:29;101176.51;;;11.75;67.24
42067;BME280;27734;47.028;28.820;2023-05-10T05:40:58;101177.72;;;11.83;67.66
42067;BME280;27734;47.028;28.820;2023-05-10T05:43:27;101179.87;;;11.92;67.81
42067;BME280;27734;47.028;28.820;2023-05-10T05:45:56;101177.69;;;12.03;67.89
42067;BME280;27734;47.028;28.820;2023-05-10T05:48:25;101175.39;;;12.12;67.00
42067;BME280;27734;47.028;28.820;2023-05-10T05:50:56;101171.23;;;12.17;66.79
42067;BME280;27734;47.028;28.820;2023-05-10T05:53:25;101174.11;;;12.23;66.21
42067;BME280;27734;47.028;28.820;2023-05-10T05:55:54;101177.94;;;12.32;65.28
42067;BME280;27734;47.028;28.820;2023-05-10T05:58:23;101178.36;;;12.43;64.16
42067;BME280;27734;47.028;28.820;2023-05-10T06:00:54;101172.63;;;12.53;64.50
42067;BME280;27734;47.028;28.820;2023-05-10T06:03:24;101171.11;;;12.59;63.08
42067;BME280;27734;47.028;28.820;2023-05-10T06:05:55;101170.34;;;12.62;63.68
42067;BME280;27734;47.028;28.820;2023-05-10T06:08:25;101169.60;;;12.66;63.29
42067;BME280;27734;47.028;28.820;2023-05-10T06:10:59;101174.27;;;12.73;63.04
42067;BME280;27734;47.028;28.820;2023-05-10T06:13:29;101173.64;;;12.81;63.71
42067;BME280;27734;47.028;28.820;2023-05-10T06:16:00;101177.36;;;12.86;61.90
42067;BME280;27734;47.028;28.820;2023-05-10T06:18:31;101171.58;;;12.96;62.42
42067;BME280;27734;47.028;28.820;2023-05-10T06:21:05;101171.08;;;13.06;63.02
42067;BME280;27734;47.028;28.820;2023-05-10T06:23:44;101174.00;;;13.14;62.47
42067;BME280;27734;47.028;28.820;2023-05-10T06:26:13;101163.67;;;13.20;61.14
42067;BME280;27734;47.028;28.820;2023-05-10T06:28:42;101165.55;;;13.24;60.58
42067;BME280;27734;47.028;28.820;2023-05-10T06:31:10;101164.84;;;13.28;61.10
42067;BME280;27734;47.028;28.820;2023-05-10T06:33:40;101156.20;;;13.33;60.40
42067;BME280;27734;47.028;28.820;2023-05-10T06:36:08;101160.91;;;13.41;59.07
42067;BME280;27734;47.028;28.820;2023-05-10T06:38:42;101163.09;;;13.53;58.67
42067;BME280;27734;47.028;28.820;2023-05-10T06:41:11;101160.81;;;13.64;56.81
42067;BME280;27734;47.028;28.820;2023-05-10T06:43:40;101173.40;;;13.73;58.16
42067;BME280;27734;47.028;28.820;2023-05-10T06:46:13;101164.02;;;13.81;58.85
42067;BME280;27734;47.028;28.820;2023-05-10T06:48:42;101159.78;;;13.86;55.72
42067;BME280;27734;47.028;28.820;2023-05-10T06:51:14;101156.46;;;13.92;56.14
42067;BME280;27734;47.028;28.820;2023-05-10T06:53:44;101161.12;;;14.00;53.28
42067;BME280;27734;47.028;28.820;2023-05-10T06:56:12;101162.19;;;14.06;56.05
42067;BME280;27734;47.028;28.820;2023-05-10T06:58:41;101159.98;;;14.19;57.16
42067;BME280;27734;47.028;28.820;2023-05-10T07:01:10;101164.88;;;14.36;53.29
42067;BME280;27734;47.028;28.820;2023-05-10T07:03:39;101162.13;;;14.60;54.23
42067;BME280;27734;47.028;28.820;2023-05-10T07:06:09;101162.64;;;14.79;56.13
42067;BME280;27734;47.028;28.820;2023-05-10T07:08:40;101162.07;;;14.89;55.24
42067;BME280;27734;47.028;28.820;2023-05-10T07:11:08;101174.97;;;15.08;54.95
42067;BME280;27734;47.028;28.820;2023-05-10T07:13:39;101165.66;;;15.23;54.15
42067;BME280;27734;47.028;28.820;2023-05-10T07:16:11;101159.88;;;15.38;51.06
42067;BME280;27734;47.028;28.820;2023-05-10T07:18:42;101163.80;;;15.52;51.82
42067;BME280;27734;47.028;28.820;2023-05-10T07:21:10;101163.08;;;15.59;52.18
42067;BME280;27734;47.028;28.820;2023-05-10T07:23:39;101171.69;;;15.51;50.20
42067;BME280;27734;47.028;28.820;2023-05-10T07:26:09;101162.59;;;15.41;49.06
42067;BME280;27734;47.028;28.820;2023-05-10T07:28:40;101158.23;;;15.41;51.23
42067;BME280;27734;47.028;28.820;2023-05-10T07:31:08;101151.02;;;15.36;50.82
42067;BME280;27734;47.028;28.820;2023-05-10T07:33:37;101159.95;;;15.41;49.65
42067;BME280;27734;47.028;28.820;2023-05-10T07:36:10;101157.80;;;15.59;48.86
42067;BME280;27734;47.028;28.820;2023-05-10T07:38:39;101155.45;;;15.72;49.56
42067;BME280;27734;47.028;28.820;2023-05-10T07:41:08;101158.48;;;15.86;45.31
42067;BME280;27734;47.028;28.820;2023-05-10T07:43:39;101157.20;;;16.06;48.64
42067;BME280;27734;47.028;28.820;2023-05-10T07:46:08;101163.64;;;16.16;49.47
42067;BME280;27734;47.028;28.820;2023-05-10T07:48:38;101167.34;;;16.24;49.14
42067;BME280;27734;47.028;28.820;2023-05-10T07:51:06;101166.39;;;16.21;47.38
42067;BME280;27734;47.028;28.820;2023-05-10T07:53:37;101163.75;;;16.21;47.52
42067;BME280;27734;47.028;28.820;2023-05-10T07:56:21;101158.59;;;16.27;48.25
42067;BME280;27734;47.028;28.820;2023-05-10T07:58:49;101159.92;;;16.47;47.52
42067;BME280;27734;47.028;28.820;2023-05-10T08:01:18;101165.97;;;16.42;43.39
42067;BME280;27734;47.028;28.820;2023-05-10T08:03:50;101165.44;;;16.18;44.55
42067;BME280;27734;47.028;28.820;2023-05-10T08:06:29;101163.56;;;16.13;43.77
42067;BME280;27734;47.028;28.820;2023-05-10T08:08:58;101163.23;;;15.99;43.53
42067;BME280;27734;47.028;28.820;2023-05-10T08:11:29;101160.36;;;15.90;43.74
42067;BME280;27734;47.028;28.820;2023-05-10T08:13:59;101153.64;;;16.04;44.70
42067;BME280;27734;47.028;28.820;2023-05-10T08:16:28;101153.47;;;16.36;42.56
42067;BME280;27734;47.028;28.820;2023-05-10T08:18:57;101165.13;;;16.43;42.72
42067;BME280;27734;47.028;28.820;2023-05-10T08:21:26;101167.62;;;16.37;40.54
42067;BME280;27734;47.028;28.820;2023-05-10T08:24:05;101163.14;;;16.34;42.22
42067;BME280;27734;47.028;28.820;2023-05-10T08:26:40;101158.70;;;16.33;41.69
42067;BME280;27734;47.028;28.820;2023-05-10T08:29:08;101161.45;;;16.38;42.18
42067;BME280;27734;47.028;28.820;2023-05-10T08:31:37;101165.02;;;16.38;41.12
42067;BME280;27734;47.028;28.820;2023-05-10T08:34:10;101153.27;;;16.25;42.50
42067;BME280;27734;47.028;28.820;2023-05-10T08:36:38;101152.27;;;16.22;40.66
42067;BME280;27734;47.028;28.820;2023-05-10T08:39:07;101147.12;;;16.28;40.95
42067;BME280;27734;47.028;28.820;2023-05-10T08:41:36;101158.41;;;16.19;40.83
42067;BME280;27734;47.028;28.820;2023-05-10T08:44:08;101158.86;;;16.01;41.48
42067;BME280;27734;47.028;28.820;2023-05-10T08:46:38;101150.84;;;15.98;40.98
42067;BME280;27734;47.028;28.820;2023-05-10T08:49:15;101153.64;;;16.04;41.88
42067;BME280;27734;47.028;28.820;2023-05-10T08:51:50;101146.73;;;16.11;41.46
42067;BME280;27734;47.028;28.820;2023-05-10T08:54:20;101151.35;;;16.20;41.14
42067;BME280;27734;47.028;28.820;2023-05-10T08:56:56;101142.20;;;16.45;40.70
42067;BME280;27734;47.028;28.820;2023-05-10T08:59:26;101138.41;;;16.75;41.70
42067;BME280;27734;47.028;28.820;2023-05-10T09:01:59;101136.13;;;16.92;41.61
42067;BME280;27734;47.028;28.820;2023-05-10T09:04:30;101142.23;;;16.87;38.92
42067;BME280;27734;47.028;28.820;2023-05-10T09:06:59;101147.20;;;16.72;39.32
42067;BME280;27734;47.028;28.820;2023-05-10T09:09:28;101136.35;;;16.60;39.75
42067;BME280;27734;47.028;28.820;2023-05-10T09:11:57;101129.28;;;16.60;40.70
42067;BME280;27734;47.028;28.820;2023-05-10T09:14:26;101136.15;;;16.50;40.24
42067;BME280;27734;47.028;28.820;2023-05-10T09:16:55;101130.34;;;16.27;39.07
42067;BME280;27734;47.028;28.820;2023-05-10T09:19:29;101138.08;;;16.18;39.40
42067;BME280;27734;47.028;28.820;2023-05-10T09:22:04;101130.73;;;16.06;39.89
42067;BME280;27734;47.028;28.820;2023-05-10T09:24:33;101127.17;;;16.04;39.43
42067;BME280;27734;47.028;28.820;2023-05-10T09:27:07;101131.66;;;16.07;37.30
42067;BME280;27734;47.028;28.820;2023-05-10T09:29:45;101127.66;;;16.26;39.79
42067;BME280;27734;47.028;28.820;2023-05-10T09:32:15;101124.47;;;16.42;40.07
42067;BME280;27734;47.028;28.820;2023-05-10T09:34:44;101119.86;;;16.75;39.97
42067;BME280;27734;47.028;28.820;2023-05-10T09:37:16;101115.84;;;16.94;39.76
42067;BME280;27734;47.028;28.820;2023-05-10T09:39:50;101109.95;;;17.09;40.01
42067;BME280;27734;47.028;28.820;2023-05-10T09:42:23;101118.91;;;17.15;39.72
42067;BME280;27734;47.028;28.820;2023-05-10T09:45:00;101109.30;;;17.20;38.96
42067;BME280;27734;47.028;28.820;2023-05-10T09:47:29;101099.81;;;17.35;39.38
42067;BME280;27734;47.028;28.820;2023-05-10T09:49:59;101099.17;;;17.50;39.04
42067;BME280;27734;47.028;28.820;2023-05-10T09:52:31;101093.38;;;17.74;39.64
42067;BME280;27734;47.028;28.820;2023-05-10T09:55:15;101092.02;;;17.99;39.50
42067;BME280;27734;47.028;28.820;2023-05-10T09:57:44;101087.29;;;18.41;39.82
42067;BME280;27734;47.028;28.820;2023-05-10T10:00:19;101085.80;;;18.64;39.10
42067;BME280;27734;47.028;28.820;2023-05-10T10:02:57;101082.56;;;18.87;39.34
42067;BME280;27734;47.028;28.820;2023-05-10T10:05:38;101081.94;;;19.14;39.05
42067;BME280;27734;47.028;28.820;2023-05-10T10:08:10;101076.72;;;19.25;38.30
42067;BME280;27734;47.028;28.820;2023-05-10T10:10:40;101088.06;;;19.07;38.23
42067;BME280;27734;47.028;28.820;2023-05-10T10:13:09;101090.73;;;19.09;37.02
42067;BME280;27734;47.028;28.820;2023-05-10T10:15:39;101083.52;;;18.94;37.26
42067;BME280;27734;47.028;28.820;2023-05-10T10:18:08;101093.33;;;19.02;36.56
42067;BME280;27734;47.028;28.820;2023-05-10T10:20:40;101092.55;;;19.11;38.15
42067;BME280;27734;47.028;28.820;2023-05-10T10:23:12;101085.52;;;19.19;37.34
42067;BME280;27734;47.028;28.820;2023-05-10T10:25:42;101091.79;;;19.23;37.14
42067;BME280;27734;47.028;28.820;2023-05-10T10:28:19;101094.34;;;19.12;37.01
42067;BME280;27734;47.028;28.820;2023-05-10T10:31:02;101094.25;;;19.03;37.38
42067;BME280;27734;47.028;28.820;2023-05-10T10:33:55;101091.52;;;18.97;37.29
42067;BME280;27734;47.028;28.820;2023-05-10T10:36:25;101087.87;;;18.87;37.25
42067;BME280;27734;47.028;28.820;2023-05-10T10:38:59;101093.05;;;18.76;36.75
42067;BME280;27734;47.028;28.820;2023-05-10T10:41:33;101092.91;;;18.65;37.04
42067;BME280;27734;47.028;28.820;2023-05-10T10:44:39;101085.61;;;18.49;36.81
42067;BME280;27734;47.028;28.820;2023-05-10T10:47:22;101089.00;;;18.36;37.21
42067;BME280;27734;47.028;28.820;2023-05-10T10:50:06;101092.48;;;18.31;37.56
42067;BME280;27734;47.028;28.820;2023-05-10T10:52:40;101096.88;;;18.28;37.35
42067;BME280;27734;47.028;28.820;2023-05-10T10:55:25;101098.59;;;18.26;36.96
42067;BME280;27734;47.028;28.820;2023-05-10T10:58:03;101093.98;;;18.11;37.03
42067;BME280;27734;47.028;28.820;2023-05-10T11:00:34;101096.59;;;18.08;36.69
42067;BME280;27734;47.028;28.820;2023-05-10T11:03:04;101090.43;;;18.12;37.01
42067;BME280;27734;47.028;28.820;2023-05-10T11:05:39;101095.03;;;18.24;37.18
42067;BME280;27734;47.028;28.820;2023-05-10T11:08:10;101095.88;;;18.21;34.80
42067;BME280;27734;47.028;28.820;2023-05-10T11:10:49;101086.05;;;18.14;36.56
42067;BME280;27734;47.028;28.820;2023-05-10T11:13:37;101093.20;;;18.20;36.84
42067;BME280;27734;47.028;28.820;2023-05-10T11:16:17;101085.38;;;18.30;36.71
42067;BME280;27734;47.028;28.820;2023-05-10T11:19:03;101082.95;;;18.49;36.67
42067;BME280;27734;47.028;28.820;2023-05-10T11:21:34;101093.92;;;18.77;36.81
42067;BME280;27734;47.028;28.820;2023-05-10T11:24:38;101094.16;;;18.95;37.04
42067;BME280;27734;47.028;28.820;2023-05-10T11:27:06;101094.83;;;18.79;36.21
42067;BME280;27734;47.028;28.820;2023-05-10T11:29:36;101092.69;;;18.47;35.13
42067;BME280;27734;47.028;28.820;2023-05-10T11:32:05;101106.34;;;18.10;35.16
42067;BME280;27734;47.028;28.820;2023-05-10T11:34:36;101098.79;;;17.80;36.20
42067;BME280;27734;47.028;28.820;2023-05-10T11:37:04;101102.69;;;17.47;36.19
42067;BME280;27734;47.028;28.820;2023-05-10T11:39:33;101112.95;;;17.27;36.13
42067;BME280;27734;47.028;28.820;2023-05-10T11:42:02;101109.74;;;16.98;36.83
42067;BME280;27734;47.028;28.820;2023-05-10T11:44:31;101114.08;;;16.51;38.01
42067;BME280;27734;47.028;28.820;2023-05-10T11:47:01;101111.81;;;16.27;37.32
42067;BME280;27734;47.028;28.820;2023-05-10T11:49:32;101116.69;;;16.09;39.00
42067;BME280;27734;47.028;28.820;2023-05-10T11:52:14;101121.33;;;15.81;40.61
42067;BME280;27734;47.028;28.820;2023-05-10T11:54:53;101113.59;;;15.54;40.31
42067;BME280;27734;47.028;28.820;2023-05-10T11:57:28;101120.77;;;15.24;42.41
42067;BME280;27734;47.028;28.820;2023-05-10T12:00:00;101136.83;;;15.00;42.80
42067;BME280;27734;47.028;28.820;2023-05-10T12:02:35;101131.77;;;14.76;43.67
42067;BME280;27734;47.028;28.820;2023-05-10T12:05:06;101140.88;;;14.57;43.77
42067;BME280;27734;47.028;28.820;2023-05-10T12:07:35;101143.89;;;14.41;44.13
42067;BME280;27734;47.028;28.820;2023-05-10T12:10:11;101142.49;;;14.23;43.99
42067;BME280;27734;47.028;28.820;2023-05-10T12:12:45;101136.92;;;14.14;44.93
42067;BME280;27734;47.028;28.820;2023-05-10T12:15:19;101141.27;;;14.12;44.81
42067;BME280;27734;47.028;28.820;2023-05-10T12:17:51;101134.14;;;14.09;45.55
42067;BME280;27734;47.028;28.820;2023-05-10T12:20:23;101135.17;;;14.14;46.68
42067;BME280;27734;47.028;28.820;2023-05-10T12:22:55;101137.02;;;14.17;47.05
42067;BME280;27734;47.028;28.820;2023-05-10T12:25:29;101137.26;;;14.25;49.10
42067;BME280;27734;47.028;28.820;2023-05-10T12:27:57;101134.63;;;14.25;49.41
42067;BME280;27734;47.028;28.820;2023-05-10T12:30:54;101127.88;;;14.34;48.33
42067;BME280;27734;47.028;28.820;2023-05-10T12:33:38;101129.13;;;14.47;48.46
42067;BME280;27734;47.028;28.820;2023-05-10T12:36:16;101125.25;;;14.63;47.35
42067;BME280;27734;47.028;28.820;2023-05-10T12:39:04;101126.66;;;14.82;47.30
42067;BME280;27734;47.028;28.820;2023-05-10T12:41:33;101132.72;;;15.10;47.53
42067;BME280;27734;47.028;28.820;2023-05-10T12:44:01;101117.36;;;15.30;46.97
42067;BME280;27734;47.028;28.820;2023-05-10T12:46:50;101118.87;;;15.54;46.63
42067;BME280;27734;47.028;28.820;2023-05-10T12:49:19;101108.02;;;15.78;46.57
42067;BME280;27734;47.028;28.820;2023-05-10T12:51:48;101112.72;;;15.90;45.06
42067;BME280;27734;47.028;28.820;2023-05-10T12:54:17;101103.20;;;15.98;45.34
42067;BME280;27734;47.028;28.820;2023-05-10T12:56:47;101098.30;;;16.15;45.10
42067;BME280;27734;47.028;28.820;2023-05-10T12:59:21;101106.65;;;16.33;44.56
42067;BME280;27734;47.028;28.820;2023-05-10T13:01:52;101100.80;;;16.50;44.65
42067;BME280;27734;47.028;28.820;2023-05-10T13:04:20;101105.41;;;16.59;43.66
42067;BME280;27734;47.028;28.820;2023-05-10T13:06:49;101093.99;;;16.61;43.50
42067;BME280;27734;47.028;28.820;2023-05-10T13:09:18;101091.25;;;16.57;42.82